Time;durP1;ratioP1;P1;durP2;ratioP2;P2;SDS_P1;SDS_P2;PMS_P1;PMS_P2;Temp;Humidity;BMP_temperature;BMP_pressure;BME280_temperature;BME280_humidity;BME280_pressure;Samples;Min_cycle;Max_cycle;Signal;HPM_P1;HPM_P2
2023/08/19 00:00:52;;;;;;;29.08;23.02;;;;;;;21.55;100.00;101043.59;5074452;28;20029;-65
2023/08/19 00:03:17;;;;;;;30.88;22.77;;;;;;;21.50;100.00;101050.06;5073121;28;20028;-65
2023/08/19 00:05:44;;;;;;;29.65;22.95;;;;;;;21.45;100.00;101043.94;5074299;28;20073;-65
2023/08/19 00:08:09;;;;;;;29.40;23.02;;;;;;;21.41;100.00;101041.38;5074053;28;20037;-66
2023/08/19 00:10:35;;;;;;;31.65;24.17;;;;;;;21.40;100.00;101038.75;5072776;28;20033;-65
2023/08/19 00:13:00;;;;;;;29.65;23.15;;;;;;;21.40;100.00;101041.44;5074294;28;20028;-65
2023/08/19 00:15:26;;;;;;;29.88;23.45;;;;;;;21.42;100.00;101043.16;5073853;28;20035;-65
2023/08/19 00:17:51;;;;;;;30.00;24.00;;;;;;;21.45;100.00;101047.53;5072567;28;20028;-65
2023/08/19 00:20:17;;;;;;;29.92;23.48;;;;;;;21.48;100.00;101039.34;5073985;28;20028;-66
2023/08/19 00:22:42;;;;;;;30.50;22.80;;;;;;;21.43;100.00;101044.00;5073594;28;20036;-65
2023/08/19 00:25:08;;;;;;;29.80;22.77;;;;;;;21.39;100.00;101050.44;5073667;28;20031;-65
2023/08/19 00:27:33;;;;;;;29.67;22.90;;;;;;;21.42;100.00;101048.53;5073861;28;20066;-66
2023/08/19 00:29:59;;;;;;;28.73;23.02;;;;;;;21.45;100.00;101044.84;5073854;28;20033;-66
2023/08/19 00:32:24;;;;;;;29.13;23.05;;;;;;;21.55;100.00;101043.59;5073616;28;20025;-65
2023/08/19 00:34:49;;;;;;;30.48;24.60;;;;;;;21.46;100.00;101038.53;5073616;28;20056;-64
2023/08/19 00:37:15;;;;;;;31.05;25.00;;;;;;;21.46;100.00;101040.34;5073641;28;20032;-65
2023/08/19 00:39:40;;;;;;;31.08;24.42;;;;;;;21.44;100.00;101050.28;5073937;28;20387;-65
2023/08/19 00:42:08;;;;;;;30.75;24.08;;;;;;;21.42;100.00;101048.53;5073297;28;20033;-65
2023/08/19 00:44:34;;;;;;;31.55;24.27;;;;;;;21.41;100.00;101056.66;5073366;28;20119;-65
2023/08/19 00:47:01;;;;;;;29.40;23.25;;;;;;;21.39;100.00;101053.13;5073365;28;20424;-65
2023/08/19 00:49:28;;;;;;;29.80;24.75;;;;;;;21.39;100.00;101055.81;5073930;28;20464;-65
2023/08/19 00:51:54;;;;;;;30.77;23.83;;;;;;;21.33;100.00;101048.00;5073244;28;20032;-65
2023/08/19 00:54:20;;;;;;;30.20;24.30;;;;;;;21.34;100.00;101050.63;5073540;28;20033;-65
2023/08/19 00:56:45;;;;;;;30.75;25.40;;;;;;;21.42;100.00;101044.94;5073089;28;20117;-65
2023/08/19 00:59:11;;;;;;;30.88;24.45;;;;;;;21.50;100.00;101040.16;5073254;28;20028;-65
2023/08/19 01:01:37;;;;;;;31.27;25.23;;;;;;;21.47;100.00;101048.34;5073242;28;20033;-65
2023/08/19 01:04:03;;;;;;;31.00;25.70;;;;;;;21.48;100.00;101042.03;5073063;28;20547;-65
2023/08/19 01:06:45;;;;;;;32.83;26.65;;;;;;;21.51;100.00;101039.28;5072927;28;20115;-65
2023/08/19 01:09:16;;;;;;;32.65;26.10;;;;;;;21.50;100.00;101036.59;5072937;28;20021;-65
2023/08/19 01:11:51;;;;;;;32.67;26.08;;;;;;;21.49;100.00;101037.53;5072959;28;20052;-65
2023/08/19 01:14:25;;;;;;;31.85;25.77;;;;;;;21.47;100.00;101029.53;5071310;28;20050;-65
2023/08/19 01:16:53;;;;;;;32.33;25.85;;;;;;;21.49;100.00;101033.03;5069195;28;20035;-68
2023/08/19 01:19:29;;;;;;;30.70;25.77;;;;;;;21.51;100.00;101039.28;5072988;28;20059;-64
2023/08/19 01:22:02;;;;;;;31.33;25.60;;;;;;;21.53;100.00;101029.31;5069622;28;20031;-68
2023/08/19 01:24:37;;;;;;;30.25;24.75;;;;;;;21.59;100.00;101028.22;5072955;28;20066;-68
2023/08/19 01:27:06;;;;;;;30.08;24.60;;;;;;;21.67;100.00;101025.22;5073233;28;20032;-67
2023/08/19 01:29:32;;;;;;;31.92;24.90;;;;;;;21.73;100.00;101030.38;5072730;28;20037;-68
2023/08/19 01:31:58;;;;;;;30.52;24.60;;;;;;;21.72;100.00;101024.09;5072551;28;20033;-68
2023/08/19 01:34:25;;;;;;;30.10;24.38;;;;;;;21.73;100.00;101015.09;5088345;28;20526;-68
2023/08/19 01:36:58;;;;;;;31.33;25.02;;;;;;;21.72;100.00;101018.72;5072537;28;20035;-68
2023/08/19 01:39:25;;;;;;;31.08;24.42;;;;;;;21.73;100.00;101001.66;5069213;28;20031;-68
2023/08/19 01:41:51;;;;;;;29.65;23.73;;;;;;;21.73;100.00;100998.94;5072732;28;20024;-67
2023/08/19 01:44:17;;;;;;;31.67;24.65;;;;;;;21.75;100.00;101001.59;5072528;28;20119;-68
2023/08/19 01:46:43;;;;;;;29.40;22.92;;;;;;;21.78;100.00;100998.75;5072544;28;20028;-68
2023/08/19 01:49:08;;;;;;;29.80;23.17;;;;;;;21.79;100.00;100996.97;5072586;28;20033;-68
2023/08/19 01:51:33;;;;;;;29.50;23.52;;;;;;;21.81;100.00;100995.09;5072745;28;20051;-67
2023/08/19 01:53:59;;;;;;;28.77;22.80;;;;;;;21.81;100.00;101003.16;5072322;28;20051;-68
2023/08/19 01:56:25;;;;;;;29.42;22.92;;;;;;;21.83;100.00;100999.47;5072362;28;20080;-68
2023/08/19 01:58:51;;;;;;;28.95;21.92;;;;;;;21.84;100.00;100997.66;5072481;28;20036;-68
2023/08/19 02:01:16;;;;;;;28.38;21.65;;;;;;;21.88;100.00;100989.38;5072301;28;20033;-68
2023/08/19 02:03:42;;;;;;;28.33;22.58;;;;;;;21.89;100.00;100995.66;5072565;28;20094;-68
2023/08/19 02:06:07;;;;;;;29.52;21.90;;;;;;;21.89;100.00;100991.16;5072366;28;20027;-68
2023/08/19 02:08:32;;;;;;;29.08;22.70;;;;;;;21.86;100.00;100985.88;5072473;28;20472;-68
2023/08/19 02:10:57;;;;;;;27.05;20.67;;;;;;;21.88;100.00;100993.91;5072236;28;20464;-68
2023/08/19 02:13:23;;;;;;;27.90;21.73;;;;;;;21.86;100.00;100990.41;5072209;28;20052;-68
2023/08/19 02:15:48;;;;;;;30.10;21.63;;;;;;;21.87;100.00;100986.75;5072384;28;20025;-68
2023/08/19 02:18:14;;;;;;;28.30;21.20;;;;;;;21.90;100.00;100992.91;5072168;28;20025;-68
2023/08/19 02:20:39;;;;;;;27.45;20.95;;;;;;;21.92;100.00;100985.63;5072172;28;20032;-68
2023/08/19 02:23:04;;;;;;;28.63;21.48;;;;;;;21.91;100.00;100975.81;5072245;28;20035;-68
2023/08/19 02:25:30;;;;;;;29.20;21.52;;;;;;;21.90;100.00;100986.63;5072404;28;20033;-65
2023/08/19 02:27:55;;;;;;;29.80;22.52;;;;;;;21.88;100.00;100978.63;5075930;28;20032;-66
2023/08/19 02:30:20;;;;;;;27.70;21.95;;;;;;;21.94;100.00;100975.69;5076124;28;20071;-66
2023/08/19 02:32:46;;;;;;;28.55;21.90;;;;;;;21.87;100.00;100974.19;5075768;28;20038;-66
2023/08/19 02:35:11;;;;;;;29.80;23.75;;;;;;;21.84;100.00;100963.53;5075716;28;20064;-65
2023/08/19 02:37:37;;;;;;;29.27;22.88;;;;;;;21.85;100.00;100970.69;5076010;28;20029;-65
2023/08/19 02:40:04;;;;;;;30.25;23.90;;;;;;;21.78;100.00;100974.56;5075804;28;20075;-66
2023/08/19 02:42:29;;;;;;;29.63;23.25;;;;;;;21.81;100.00;100962.81;5075809;28;20034;-65
2023/08/19 02:44:55;;;;;;;29.27;23.83;;;;;;;21.79;100.00;100968.25;5075651;28;20025;-65
2023/08/19 02:47:20;;;;;;;28.40;22.77;;;;;;;21.80;100.00;100966.41;5075689;28;20430;-65
2023/08/19 02:49:45;;;;;;;31.38;25.00;;;;;;;21.76;100.00;100957.59;5075834;28;20425;-65
2023/08/19 02:52:11;;;;;;;30.15;24.27;;;;;;;21.74;100.00;100965.75;5075495;28;20029;-65
2023/08/19 02:54:36;;;;;;;30.38;24.08;;;;;;;21.75;100.00;100966.59;5075449;28;20033;-65
2023/08/19 02:57:02;;;;;;;29.60;23.40;;;;;;;21.72;100.00;100961.34;5075490;28;20459;-65
2023/08/19 02:59:27;;;;;;;29.27;23.63;;;;;;;21.71;100.00;100963.19;5075272;28;20498;-66
2023/08/19 03:01:53;;;;;;;29.98;24.52;;;;;;;21.68;100.00;100963.31;5075681;28;20029;-65
2023/08/19 03:04:18;;;;;;;29.75;24.50;;;;;;;21.70;100.00;100966.81;5075425;28;20513;-65
2023/08/19 03:06:43;;;;;;;31.23;24.77;;;;;;;21.70;100.00;100965.94;5090946;28;20037;-65
2023/08/19 03:09:09;;;;;;;30.65;24.55;;;;;;;21.70;100.00;100961.41;5075494;28;20028;-65
2023/08/19 03:11:35;;;;;;;29.58;24.02;;;;;;;21.72;100.00;100961.34;5075266;28;20021;-66
2023/08/19 03:14:00;;;;;;;28.73;23.83;;;;;;;21.70;100.00;100963.25;5075169;28;20492;-68
2023/08/19 03:16:26;;;;;;;30.33;24.48;;;;;;;21.70;100.00;100963.25;5075056;28;20041;-67
2023/08/19 03:18:51;;;;;;;30.27;23.85;;;;;;;21.70;100.00;100963.25;5075232;28;20059;-68
2023/08/19 03:21:17;;;;;;;30.15;24.80;;;;;;;21.69;100.00;100956.97;5075269;28;20033;-68
2023/08/19 03:23:42;;;;;;;27.40;20.88;;;;;;;21.67;100.00;100948.09;5075026;28;20031;-68
2023/08/19 03:26:07;;;;;;;27.48;20.83;;;;;;;21.69;100.00;100948.91;5074945;28;20075;-68
2023/08/19 03:28:33;;;;;;;26.45;18.55;;;;;;;21.69;100.00;100954.28;5074911;28;20086;-67
2023/08/19 03:30:58;;;;;;;25.85;18.95;;;;;;;21.69;100.00;100948.03;5075260;28;20061;-68
2023/08/19 03:33:23;;;;;;;25.40;18.05;;;;;;;21.71;100.00;100952.44;5074771;28;20033;-68
2023/08/19 03:35:49;;;;;;;24.42;16.80;;;;;;;21.73;100.00;100950.53;5074936;28;20037;-68
2023/08/19 03:38:15;;;;;;;25.45;16.52;;;;;;;21.75;100.00;100959.41;5074766;28;20033;-68
2023/08/19 03:40:41;;;;;;;24.67;16.80;;;;;;;21.75;100.00;100945.97;5074636;28;20036;-68
2023/08/19 03:43:10;;;;;;;24.15;16.05;;;;;;;21.78;100.00;100955.72;5074615;28;20040;-68
2023/08/19 03:45:35;;;;;;;25.55;16.77;;;;;;;21.75;100.00;100964.78;5074780;28;20501;-68
2023/08/19 03:48:00;;;;;;;26.00;17.13;;;;;;;21.78;100.00;100963.78;5074393;28;20112;-68
2023/08/19 03:50:26;;;;;;;24.80;15.98;;;;;;;21.77;100.00;100956.69;5074558;28;20028;-68
2023/08/19 03:52:51;;;;;;;24.95;16.38;;;;;;;21.76;100.00;100955.78;5074645;28;20028;-68
2023/08/19 03:55:17;;;;;;;24.75;16.38;;;;;;;21.75;100.00;100953.16;5074337;28;20024;-68
2023/08/19 03:57:42;;;;;;;26.38;16.55;;;;;;;21.71;100.00;100954.22;5073959;28;20048;-68
2023/08/19 04:00:09;;;;;;;25.92;16.30;;;;;;;21.71;100.00;100946.16;5090123;28;20494;-68
2023/08/19 04:02:34;;;;;;;23.65;15.32;;;;;;;21.73;100.00;100955.91;5074078;28;20468;-68
2023/08/19 04:05:04;;;;;;;24.27;14.90;;;;;;;21.75;100.00;100961.22;5074578;28;20047;-68
2023/08/19 04:07:30;;;;;;;24.92;15.52;;;;;;;21.78;100.00;100955.72;5074369;28;20025;-68
2023/08/19 04:09:56;;;;;;;23.83;14.65;;;;;;;21.79;100.00;100954.78;5074121;28;20040;-65
2023/08/19 04:12:23;;;;;;;23.70;14.43;;;;;;;21.80;100.00;100961.94;5073982;28;20464;-65
2023/08/19 04:14:48;;;;;;;24.33;14.75;;;;;;;21.80;100.00;100963.72;5073997;28;20387;-65
2023/08/19 04:17:14;;;;;;;24.23;14.70;;;;;;;21.81;100.00;100957.41;5073928;28;20032;-66
2023/08/19 04:19:39;;;;;;;24.40;13.98;;;;;;;21.80;100.00;100964.63;5074021;28;20032;-65
2023/08/19 04:22:05;;;;;;;22.98;14.25;;;;;;;21.79;100.00;100965.56;5073681;28;20074;-65
2023/08/19 04:24:32;;;;;;;22.83;14.20;;;;;;;21.75;100.00;100959.41;5073715;28;20035;-66
2023/08/19 04:26:57;;;;;;;24.48;14.00;;;;;;;21.75;100.00;100963.91;5074104;28;20036;-64
2023/08/19 04:29:23;;;;;;;25.15;14.95;;;;;;;21.73;100.00;100961.28;5073697;28;20384;-65
2023/08/19 04:31:48;;;;;;;23.20;14.48;;;;;;;21.75;100.00;100969.31;5073807;28;20082;-65
2023/08/19 04:34:13;;;;;;;22.98;14.00;;;;;;;21.74;100.00;100970.22;5073760;28;20422;-65
2023/08/19 04:36:39;;;;;;;23.40;14.35;;;;;;;21.76;100.00;100963.00;5073753;28;20055;-65
2023/08/19 04:39:07;;;;;;;23.30;14.43;;;;;;;21.73;100.00;100972.06;5073448;28;20079;-65
2023/08/19 04:41:33;;;;;;;23.75;14.23;;;;;;;21.70;100.00;100972.19;5073619;28;20084;-65
2023/08/19 04:43:58;;;;;;;23.17;14.27;;;;;;;21.65;100.00;100970.59;5073424;28;20364;-66
2023/08/19 04:46:24;;;;;;;23.15;14.32;;;;;;;21.64;100.00;100975.13;5073695;28;20028;-65
2023/08/19 04:48:49;;;;;;;23.85;14.00;;;;;;;21.65;100.00;100979.53;5072955;28;20475;-65
2023/08/19 04:51:15;;;;;;;24.15;14.00;;;;;;;21.62;100.00;100978.81;5073220;28;20039;-65
2023/08/19 04:53:40;;;;;;;23.38;13.70;;;;;;;21.63;100.00;100970.66;5073182;28;20498;-65
2023/08/19 04:56:06;;;;;;;22.02;13.30;;;;;;;21.66;100.00;100972.38;5073661;28;20112;-65
2023/08/19 04:58:31;;;;;;;24.13;13.23;;;;;;;21.67;100.00;100968.72;5072797;28;20403;-65
2023/08/19 05:00:56;;;;;;;23.30;13.05;;;;;;;21.71;100.00;100963.19;5073038;28;20047;-65
2023/08/19 05:03:22;;;;;;;21.75;12.50;;;;;;;21.75;100.00;100953.16;5073197;28;20532;-66
2023/08/19 05:05:48;;;;;;;22.40;12.27;;;;;;;21.78;100.00;100961.09;5073044;28;20036;-65
2023/08/19 05:08:14;;;;;;;21.92;12.38;;;;;;;21.83;100.00;100959.13;5073209;28;20086;-65
2023/08/19 05:10:39;;;;;;;22.30;11.93;;;;;;;21.87;100.00;100968.81;5072993;28;20032;-65
2023/08/19 05:13:04;;;;;;;22.00;12.05;;;;;;;21.89;100.00;100980.38;5072873;28;20029;-65
2023/08/19 05:15:30;;;;;;;21.38;11.75;;;;;;;21.98;100.00;100975.56;5072944;28;20032;-65
2023/08/19 05:17:56;;;;;;;21.88;12.02;;;;;;;22.03;100.00;100974.44;5072916;28;20035;-65
2023/08/19 05:20:22;;;;;;;21.63;11.52;;;;;;;22.09;100.00;100963.41;5069017;28;20101;-65
2023/08/19 05:22:47;;;;;;;20.50;11.07;;;;;;;22.15;100.00;100977.53;5072821;28;20031;-65
2023/08/19 05:25:12;;;;;;;22.25;11.43;;;;;;;22.19;100.00;100972.00;5072956;28;20025;-66
2023/08/19 05:27:38;;;;;;;22.83;11.55;;;;;;;22.23;100.00;100975.41;5072736;28;20108;-66
2023/08/19 05:30:05;;;;;;;21.15;11.07;;;;;;;22.25;100.00;100990.56;5072948;28;20056;-65
2023/08/19 05:32:30;;;;;;;21.77;10.65;;;;;;;22.26;100.00;100986.03;5072610;28;20024;-66
2023/08/19 05:34:56;;;;;;;20.52;10.75;;;;;;;22.24;100.00;100978.03;5072599;28;20036;-66
2023/08/19 05:37:21;;;;;;;21.90;10.73;;;;;;;22.23;100.00;100970.88;5072780;28;20021;-65
2023/08/19 05:39:46;;;;;;;22.92;11.48;;;;;;;22.20;100.00;100976.41;5072878;28;20032;-66
2023/08/19 05:42:12;;;;;;;21.35;11.05;;;;;;;22.20;100.00;100978.25;5072839;28;20028;-65
2023/08/19 05:44:38;;;;;;;23.23;11.63;;;;;;;22.20;100.00;100973.72;5072749;28;20416;-65
2023/08/19 05:47:03;;;;;;;21.30;11.18;;;;;;;22.22;100.00;100979.94;5072537;28;20028;-65
2023/08/19 05:49:29;;;;;;;21.70;10.38;;;;;;;22.28;100.00;100982.34;5072645;28;20091;-65
2023/08/19 05:51:55;;;;;;;22.42;10.70;;;;;;;22.32;100.00;100974.16;5072806;28;20120;-65
2023/08/19 05:54:20;;;;;;;21.60;10.73;;;;;;;22.36;100.00;100976.66;5071327;28;20064;-65
2023/08/19 05:56:45;;;;;;;21.52;10.55;;;;;;;22.40;100.00;100972.03;5072697;28;20041;-64
2023/08/19 05:59:11;;;;;;;21.92;10.05;;;;;;;22.49;100.00;100977.03;5072653;28;20111;-65
2023/08/19 06:01:36;;;;;;;21.92;9.90;;;;;;;22.56;100.00;100983.03;5074703;28;20028;-64
2023/08/19 06:04:02;;;;;;;20.50;9.60;;;;;;;22.65;100.00;100992.53;5076712;28;20032;-65
2023/08/19 06:06:27;;;;;;;20.70;9.88;;;;;;;22.69;100.00;100988.72;5076372;28;20033;-65
2023/08/19 06:08:53;;;;;;;20.55;9.40;;;;;;;22.76;100.00;101000.97;5076424;28;20033;-65
2023/08/19 06:11:18;;;;;;;21.13;9.80;;;;;;;22.83;100.00;100994.38;5076468;28;20025;-65
2023/08/19 06:13:44;;;;;;;20.17;9.45;;;;;;;22.90;100.00;100992.31;5076145;28;20040;-64
2023/08/19 06:16:09;;;;;;;20.05;9.50;;;;;;;23.00;100.00;101003.56;5076264;28;20450;-65
2023/08/19 06:18:34;;;;;;;20.08;9.60;;;;;;;23.02;100.00;100996.25;5076400;28;20027;-65
2023/08/19 06:21:00;;;;;;;21.67;10.40;;;;;;;23.06;100.00;101000.56;5076355;28;20027;-65
2023/08/19 06:23:26;;;;;;;21.35;10.07;;;;;;;23.08;100.00;101006.75;5076226;28;20044;-68
2023/08/19 06:25:52;;;;;;;21.67;9.15;;;;;;;23.15;100.00;101006.47;5076517;28;20023;-68
2023/08/19 06:28:19;;;;;;;20.27;9.45;;;;;;;23.25;100.00;101014.13;5075917;28;20031;-68
2023/08/19 06:30:45;;;;;;;20.35;9.25;;;;;;;23.35;100.00;101014.56;5076380;28;20127;-68
2023/08/19 06:33:11;;;;;;;21.20;9.48;;;;;;;23.43;100.00;101018.66;5075988;28;20063;-68
2023/08/19 06:35:37;;;;;;;21.73;9.38;;;;;;;23.53;100.00;101013.69;5075819;28;20486;-68
2023/08/19 06:38:07;;;;;;;20.25;9.25;;;;;;;23.65;100.00;101023.91;5075931;28;20025;-68
2023/08/19 06:40:35;;;;;;;21.58;9.05;;;;;;;23.73;100.00;101019.97;5076069;28;20028;-68
2023/08/19 06:43:03;;;;;;;20.13;9.52;;;;;;;23.81;100.00;101017.78;5075880;28;20028;-68
2023/08/19 06:45:30;;;;;;;21.85;9.48;;;;;;;23.82;100.00;101030.31;5075708;28;20475;-67
2023/08/19 06:47:57;;;;;;;21.45;9.70;;;;;;;23.79;100.00;101035.88;5075783;28;20024;-67
2023/08/19 06:50:23;;;;;;;22.10;9.90;;;;;;;23.82;100.00;101039.31;5071673;28;20031;-68
2023/08/19 06:52:49;;;;;;;21.00;9.70;;;;;;;23.80;100.00;101033.09;5074389;28;20464;-68
2023/08/19 06:55:15;;;;;;;19.92;9.43;;;;;;;23.88;100.00;101039.97;5075487;28;20044;-68
2023/08/19 06:57:49;;;;;;;20.17;9.45;;;;;;;23.89;100.00;101037.19;5075252;28;20123;-68
2023/08/19 07:00:15;;;;;;;21.20;9.38;;;;;;;23.87;100.00;101039.13;5075291;28;20025;-68
2023/08/19 07:02:41;;;;;;;21.55;9.60;;;;;;;23.83;100.00;101043.72;5075585;28;20040;-68
2023/08/19 07:05:17;;;;;;;20.92;9.32;;;;;;;23.81;100.00;101042.06;5075354;28;20033;-68
2023/08/19 07:07:49;;;;;;;21.13;9.65;;;;;;;23.76;100.00;101046.81;5075302;28;20062;-67
2023/08/19 07:10:19;;;;;;;20.63;9.50;;;;;;;23.70;100.00;101050.66;5075286;28;20612;-67
2023/08/19 07:12:45;;;;;;;20.45;9.57;;;;;;;23.75;100.00;101056.75;5074719;28;20025;-68
2023/08/19 07:15:14;;;;;;;21.65;9.73;;;;;;;23.82;100.00;101041.09;5075079;28;20039;-68
2023/08/19 07:17:44;;;;;;;21.80;9.73;;;;;;;23.96;100.00;101046.75;5073872;28;20039;-69
2023/08/19 07:20:15;;;;;;;20.98;9.77;;;;;;;24.17;100.00;101052.03;5073953;28;20056;-68
2023/08/19 07:22:42;;;;;;;21.95;10.18;;;;;;;24.42;100.00;101045.41;5073536;28;20483;-68
2023/08/19 07:25:09;;;;;;;20.70;9.82;;;;;;;24.69;100.00;101046.72;5074950;28;20032;-66
2023/08/19 07:27:35;;;;;;;21.98;10.30;;;;;;;24.91;100.00;101052.88;5075168;28;20040;-65
2023/08/19 07:30:02;;;;;;;20.73;9.43;;;;;;;24.99;100.00;101054.22;5075270;28;20108;-65
2023/08/19 07:32:29;;;;;;;21.00;8.70;;;;;;;25.02;100.00;101045.94;5074829;28;20035;-65
2023/08/19 07:34:55;;;;;;;21.63;9.63;;;;;;;25.15;100.00;101039.84;5074914;28;20039;-65
2023/08/19 07:37:20;;;;;;;21.05;8.63;;;;;;;25.21;100.00;101074.72;5074909;28;20029;-65
2023/08/19 07:39:46;;;;;;;21.20;8.82;;;;;;;25.30;100.00;101070.63;5074663;28;20051;-65
2023/08/19 07:42:11;;;;;;;20.63;8.88;;;;;;;25.36;100.00;101079.31;5075104;28;20036;-65
2023/08/19 07:44:36;;;;;;;20.02;8.90;;;;;;;25.47;100.00;101091.38;5073427;28;20086;-65
2023/08/19 07:47:02;;;;;;;20.17;8.57;;;;;;;25.65;100.00;101084.97;5074453;28;20073;-65
2023/08/19 07:49:27;;;;;;;20.13;8.73;;;;;;;25.67;100.00;101093.00;5074712;28;20036;-65
2023/08/19 07:51:52;;;;;;;19.85;8.85;;;;;;;25.60;100.00;101086.16;5074521;28;20083;-65
2023/08/19 07:54:21;;;;;;;20.30;9.15;;;;;;;25.52;100.00;101101.00;5073042;28;20492;-65
2023/08/19 07:56:47;;;;;;;20.27;8.80;;;;;;;25.47;100.00;101099.50;5074645;28;20388;-65
2023/08/19 07:59:12;;;;;;;20.85;9.52;;;;;;;25.43;100.00;101104.22;5074521;28;20122;-65
2023/08/19 08:01:37;;;;;;;21.15;9.02;;;;;;;25.38;100.00;101099.06;5074202;28;20082;-65
2023/08/19 08:04:03;;;;;;;19.75;8.95;;;;;;;25.41;100.00;101084.47;5074464;28;20115;-65
2023/08/19 08:06:28;;;;;;;20.25;8.60;;;;;;;25.53;100.00;101075.69;5074121;28;20033;-65
2023/08/19 08:08:54;;;;;;;19.17;8.50;;;;;;;25.65;100.00;101094.94;5074430;28;20071;-68
2023/08/19 08:11:19;;;;;;;19.27;8.73;;;;;;;25.54;100.00;101085.56;5073973;28;20074;-68
2023/08/19 08:13:44;;;;;;;20.30;8.80;;;;;;;25.51;100.00;101095.66;5074037;28;20036;-68
2023/08/19 08:16:10;;;;;;;19.70;8.70;;;;;;;25.45;100.00;101102.28;5074125;28;20472;-68
2023/08/19 08:18:35;;;;;;;20.02;8.63;;;;;;;25.37;100.00;101089.19;5073836;28;20460;-67
2023/08/19 08:21:01;;;;;;;19.75;8.43;;;;;;;25.35;100.00;101104.63;5055964;28;20033;-68
2023/08/19 08:23:26;;;;;;;19.88;8.85;;;;;;;25.36;100.00;101097.38;5073065;28;20060;-67
2023/08/19 08:25:51;;;;;;;19.80;8.43;;;;;;;25.40;100.00;101105.25;5074050;28;20029;-68
2023/08/19 08:28:17;;;;;;;20.85;8.85;;;;;;;25.42;100.00;101112.41;5073764;28;20024;-68
2023/08/19 08:30:43;;;;;;;19.65;8.50;;;;;;;25.37;100.00;101127.06;5073936;28;20024;-68
2023/08/19 08:33:08;;;;;;;20.00;8.45;;;;;;;25.35;100.00;101128.97;5073490;28;20028;-68
2023/08/19 08:35:34;;;;;;;19.73;8.50;;;;;;;25.28;100.00;101110.41;5073623;28;20043;-68
2023/08/19 08:37:59;;;;;;;20.27;8.23;;;;;;;25.35;100.00;101123.56;5073803;28;20102;-68
2023/08/19 08:40:24;;;;;;;19.88;8.43;;;;;;;25.21;100.00;101163.97;5073564;28;20028;-68
2023/08/19 08:42:52;;;;;;;19.52;8.82;;;;;;;25.05;100.00;101153.94;5073330;28;20036;-68
2023/08/19 08:45:20;;;;;;;20.38;9.07;;;;;;;25.02;100.00;101148.69;5073587;28;20023;-68
2023/08/19 08:47:45;;;;;;;20.77;8.93;;;;;;;25.09;100.00;101154.66;5073341;28;20537;-68
2023/08/19 08:50:11;;;;;;;21.08;8.68;;;;;;;25.16;100.00;101149.78;5073362;28;20060;-68
2023/08/19 08:52:39;;;;;;;20.65;8.88;;;;;;;25.19;100.00;101149.63;5073449;28;20028;-68
2023/08/19 08:55:05;;;;;;;20.05;8.88;;;;;;;25.24;100.00;101147.56;5073108;28;20039;-67
2023/08/19 08:57:31;;;;;;;20.63;9.05;;;;;;;25.26;100.00;101156.47;5072911;28;20080;-67
2023/08/19 08:59:56;;;;;;;21.27;9.75;;;;;;;25.27;100.00;101169.03;5073503;28;20128;-68
2023/08/19 09:02:25;;;;;;;22.67;9.95;;;;;;;25.35;100.00;101174.97;5073043;28;20048;-68
2023/08/19 09:04:51;;;;;;;20.92;10.00;;;;;;;25.49;100.00;101174.22;5072999;28;20044;-68
2023/08/19 09:07:24;;;;;;;21.05;9.80;;;;;;;25.57;100.00;101184.63;5073146;28;20047;-68
2023/08/19 09:09:52;;;;;;;21.60;9.90;;;;;;;25.57;100.00;101181.91;5072983;28;20115;-68
2023/08/19 09:12:20;;;;;;;21.13;10.38;;;;;;;25.64;100.00;101194.16;5072848;28;20020;-67
2023/08/19 09:14:51;;;;;;;21.45;10.43;;;;;;;25.77;100.00;101188.09;5073001;28;20024;-68
2023/08/19 09:17:16;;;;;;;22.60;10.48;;;;;;;25.95;100.00;101194.34;5073099;28;20383;-68
2023/08/19 09:19:42;;;;;;;21.02;10.40;;;;;;;26.07;100.00;101193.72;5072833;28;20020;-68
2023/08/19 09:22:16;;;;;;;21.48;10.77;;;;;;;26.21;100.00;101193.81;5088566;28;20029;-68
2023/08/19 09:24:42;;;;;;;22.27;11.20;;;;;;;26.30;100.00;101205.97;5072847;28;20527;-68
2023/08/19 09:27:07;;;;;;;23.08;11.50;;;;;;;26.44;100.00;101211.50;5072767;28;20108;-67
2023/08/19 09:29:33;;;;;;;23.17;11.60;;;;;;;26.46;100.00;101224.97;5072745;28;20028;-68
2023/08/19 09:31:59;;;;;;;21.75;11.63;;;;;;;26.52;100.00;101218.28;5072947;28;20048;-68
2023/08/19 09:34:25;;;;;;;22.08;11.40;;;;;;;26.69;100.00;101223.66;5072483;28;20044;-68
2023/08/19 09:36:55;;;;;;;21.85;11.93;;;;;;;26.74;100.00;101224.28;5072548;28;20036;-68
2023/08/19 09:39:20;;;;;;;23.25;13.10;;;;;;;27.06;100.00;101229.66;5072868;28;20070;-68
2023/08/19 09:41:46;;;;;;;23.42;13.15;;;;;;;27.36;100.00;101236.94;5072849;28;20395;-67
2023/08/19 09:44:14;;;;;;;23.33;13.07;;;;;;;27.76;100.00;101237.22;5072798;28;20075;-67
2023/08/19 09:46:41;;;;;;;23.33;12.65;;;;;;;27.99;100.00;101224.97;5072794;28;20029;-65
2023/08/19 09:49:07;;;;;;;20.98;12.18;;;;;;;28.53;100.00;101232.38;5072672;28;20454;-65
2023/08/19 09:51:32;;;;;;;22.80;12.80;;;;;;;28.73;100.00;101243.81;5072435;28;20123;-66
2023/08/19 09:54:08;;;;;;;24.20;12.90;;;;;;;28.70;100.00;101252.16;5072642;28;20036;-65
2023/08/19 09:56:34;;;;;;;22.33;12.43;;;;;;;28.30;100.00;101266.47;5069643;28;20107;-65
2023/08/19 09:58:59;;;;;;;23.35;13.07;;;;;;;28.05;100.00;101255.41;5072445;28;20488;-65
2023/08/19 10:01:26;;;;;;;23.00;12.60;;;;;;;28.33;100.00;101265.41;5072628;28;20362;-65
2023/08/19 10:03:52;;;;;;;22.50;13.48;;;;;;;29.05;100.00;101265.28;5072379;28;20028;-66
2023/08/19 10:06:26;;;;;;;21.17;11.30;;;;;;;29.35;100.00;101278.69;5072370;28;20032;-65
2023/08/19 10:09:01;;;;;;;21.77;11.48;;;;;;;28.28;100.00;101276.59;5072527;28;20033;-66
2023/08/19 10:11:30;;;;;;;21.38;11.10;;;;;;;28.03;100.00;101284.53;5069042;28;20090;-66
2023/08/19 10:13:59;;;;;;;21.77;12.40;;;;;;;27.78;100.00;101280.59;5068282;28;20336;-65
2023/08/19 10:16:26;;;;;;;21.65;11.73;;;;;;;27.74;100.00;101284.44;5068276;28;20029;-65
2023/08/19 10:18:53;;;;;;;21.73;11.75;;;;;;;27.94;100.00;101280.50;5072458;28;20032;-66
2023/08/19 10:21:23;;;;;;;22.75;12.65;;;;;;;28.12;100.00;101279.41;5072530;28;20042;-65
2023/08/19 10:23:50;;;;;;;22.20;12.07;;;;;;;28.40;100.00;101282.19;5072043;28;20028;-64
2023/08/19 10:26:17;;;;;;;22.10;11.73;;;;;;;30.32;100.00;101283.78;5072340;28;20127;-65
2023/08/19 10:29:04;;;;;;;21.85;11.65;;;;;;;30.94;100.00;101299.28;5072111;28;20103;-66
2023/08/19 10:31:29;;;;;;;23.75;11.90;;;;;;;30.60;100.00;101294.47;5084350;28;20034;-65
2023/08/19 10:33:55;;;;;;;21.35;11.82;;;;;;;30.26;100.00;101298.75;5072070;28;20123;-65
2023/08/19 10:36:25;;;;;;;22.27;11.50;;;;;;;30.43;100.00;101295.69;5072304;28;20029;-65
2023/08/19 10:38:56;;;;;;;21.88;11.30;;;;;;;30.55;100.00;101299.41;5071931;28;20024;-65
2023/08/19 10:41:37;;;;;;;23.17;12.85;;;;;;;30.12;100.00;101301.59;5072306;28;20036;-65
2023/08/19 10:44:06;;;;;;;22.60;11.68;;;;;;;29.67;100.00;101318.31;5072365;28;20056;-66
2023/08/19 10:46:33;;;;;;;22.35;12.85;;;;;;;28.95;100.00;101321.28;5072632;28;20055;-65
2023/08/19 10:48:59;;;;;;;22.10;12.52;;;;;;;28.23;100.00;101324.91;5075812;28;20048;-65
2023/08/19 10:51:57;;;;;;;21.95;12.52;;;;;;;27.87;100.00;101333.47;5071628;28;20043;-66
2023/08/19 10:54:30;;;;;;;22.98;12.80;;;;;;;27.36;100.00;101334.63;5075533;28;20032;-65
2023/08/19 10:57:18;;;;;;;23.75;13.27;;;;;;;27.18;100.00;101346.56;5075400;28;20040;-65
2023/08/19 10:59:46;;;;;;;23.75;14.60;;;;;;;26.81;100.00;101346.81;5073936;28;20028;-65
2023/08/19 11:02:12;;;;;;;22.92;13.52;;;;;;;26.72;100.00;101352.75;5075343;28;20012;-65